Flight Track Log - Related Links

Times and Time Zones

All times are in EDT time to prevent confusion due to time zone crossing. See the SWA22 flight status page for this flight to view local times or setup timezone preferences in your user account.

Time Position Orientation Groundspeed Altitude Reporting Facility
EDT Latitude Longitude Course Direction KTS MPH feet Rate Location/Type
Sat 06:49:43 PM 39.1833 -76.7667 211° Southwest 211 243 3,800  Level Potomac TRACON
Sat 06:50:37 PM 39.2000 -76.8500 284° West 255 293 7,000 4,211 Climbing Potomac TRACON
Sat 06:51:37 PM 39.2167 -76.9333 284° West 248 285 11,800 3,737 Climbing Potomac TRACON
Sat 06:53:24 PM 39.2125 -77.0944 268° West 267 307 17,400 3,449 Climbing Washington Center
Sat 06:54:24 PM 39.1800 -77.1900 246° West 293 337 21,400 2,824 Climbing Washington Center
Sat 06:55:00 PM 39.0635 -77.2599 211° Southwest  Level FlightAware Approximate
Sat 06:55:23 PM 39.1144 -77.2689 223° Southwest 297 342 23,000  Level Washington Center
Sat 06:56:23 PM 39.0961 -77.3836 258° West 311 358 25,300 2,200 Climbing Washington Center
Sat 06:57:23 PM 39.0775 -77.5008 258° West 325 374 27,400 2,300 Climbing Washington Center
Sat 06:58:23 PM 39.0589 -77.6231 259° West 347 399 29,900 2,600 Climbing Washington Center
Sat 06:59:23 PM 39.0378 -77.7536 258° West 352 405 32,600 2,231 Climbing Washington Center
Sat 07:00:24 PM 39.0192 -77.8625 258° West 352 405 34,400 1,850 Climbing Washington Center
Sat 07:01:23 PM 38.9978 -78.0008 259° West 358 412 36,300 1,513 Climbing Washington Center
Sat 07:02:23 PM 38.9742 -78.1256 256° West 358 412 37,400 850 Climbing Washington Center
Sat 07:03:23 PM 38.9611 -78.2558 263° West 358 412 38,000 300 Climbing Washington Center
Sat 07:04:23 PM 38.9644 -78.3867 272° West 363 418 38,000 450 Level Washington Center
Sat 07:05:23 PM 38.9675 -78.5178 272° West 363 418 38,900 1,000 Climbing Washington Center
Sat 07:06:23 PM 38.9706 -78.6461 272° West 369 425 40,000 550 Climbing Washington Center
Sat 07:07:23 PM 38.9742 -78.7503 273° West 362 417 40,000  Level Washington Center
Sat 07:08:23 PM 38.9783 -78.9053 272° West 362 417 40,000  Level Washington Center
Sat 07:09:23 PM 38.9808 -79.0336 271° West 362 417 40,000  Level Washington Center
Sat 07:10:23 PM 38.9856 -79.1622 273° West 362 417 40,000  Level Washington Center
Sat 07:11:23 PM 38.9878 -79.2906 271° West 367 422 40,000  Level Washington Center
Sat 07:12:23 PM 38.9900 -79.4189 271° West 367 422 40,000  Level Washington Center
Sat 07:13:24 PM 38.9942 -79.5472 272° West 367 422 40,000  Level Washington Center
Sat 07:14:23 PM 39.0006 -79.6706 274° West 372 428 40,000  Level Washington Center
Sat 07:15:23 PM 39.0042 -79.8122 272° West 379 436 40,000  Level Washington Center
Sat 07:17:36 PM 39.0042 -80.0903 270° West 367 422 40,000  Level Indianapolis Center
Sat 07:18:37 PM 39.0064 -80.2211 271° West 367 422 40,000  Level Indianapolis Center
Sat 07:19:38 PM 39.0375 -80.3486 287° West 387 445 40,000  Level Indianapolis Center
Sat 07:20:40 PM 39.0894 -80.4697 299° West 388 447 40,000  Level Indianapolis Center
Sat 07:21:41 PM 39.1408 -80.5900 299° West 386 444 40,000  Level Indianapolis Center
Sat 07:22:42 PM 39.1917 -80.7103 299° West 385 443 40,000  Level Indianapolis Center
Sat 07:23:43 PM 39.2433 -80.8314 299° West 387 445 40,000  Level Indianapolis Center
Sat 07:24:44 PM 39.3061 -80.9764 299° West 388 447 40,000  Level Indianapolis Center
Sat 07:25:45 PM 39.3572 -81.0939 299° West 378 435 40,000  Level Indianapolis Center
Sat 07:26:46 PM 39.4083 -81.2181 298° West 389 448 40,000  Level Indianapolis Center
Sat 07:27:47 PM 39.4597 -81.3394 299° West 388 447 40,000  Level Indianapolis Center
Sat 07:28:48 PM 39.5108 -81.4625 298° West 390 449 40,000  Level Indianapolis Center
Sat 07:29:49 PM 39.5625 -81.5839 299° West 387 445 40,000  Level Indianapolis Center
Sat 07:30:50 PM 39.6136 -81.7067 298° West 388 447 40,000  Level Indianapolis Center
Sat 07:31:51 PM 39.6633 -81.8289 298° West 385 443 40,000  Level Indianapolis Center
Sat 07:32:52 PM 39.7150 -81.9533 298° West 383 441 40,000  Level Indianapolis Center
Sat 07:33:53 PM 39.7656 -82.0767 298° West 384 442 40,000  Level Indianapolis Center
Sat 07:34:54 PM 39.8167 -82.1989 299° West 383 441 40,000  Level Indianapolis Center
Sat 07:35:55 PM 39.8656 -82.3203 298° West 377 434 40,000  Level Indianapolis Center
Sat 07:36:56 PM 39.9158 -82.4436 298° West 382 440 40,000  Level Indianapolis Center
Sat 07:37:57 PM 39.9658 -82.5686 298° West 384 442 40,000  Level Indianapolis Center
Sat 07:38:58 PM 40.0167 -82.6939 298° West 388 447 40,000  Level Indianapolis Center
Sat 07:39:59 PM 40.0678 -82.8211 298° West 393 452 40,000  Level Indianapolis Center
Sat 07:41:00 PM 40.1269 -82.9694 298° West 395 455 40,000  Level Indianapolis Center
Sat 07:42:01 PM 40.1778 -83.0953 298° West 392 451 40,000  Level Indianapolis Center
Sat 07:43:02 PM 40.2272 -83.2219 297° West 390 449 40,000 -98 Level Indianapolis Center
Sat 07:44:03 PM 40.2772 -83.3483 297° West 391 450 39,800 -595 Descending Indianapolis Center
Sat 07:45:03 PM 40.3261 -83.4733 297° West 387 445 38,800 -992 Descending Indianapolis Center
Sat 07:46:04 PM 40.3744 -83.5972 297° West 382 440 37,800 -1,033 Descending Indianapolis Center
Sat 07:47:05 PM 40.4228 -83.7197 297° West 377 434 36,700 -885 Descending Indianapolis Center
Sat 07:48:06 PM 40.4706 -83.8439 297° West 379 436 36,000 -344 Descending Indianapolis Center
Sat 07:49:07 PM 40.5178 -83.9658 297° West 374 430 36,000  Level Indianapolis Center
Sat 07:50:08 PM 40.5644 -84.0858 297° West 369 425 36,000  Level Indianapolis Center
Sat 07:51:09 PM 40.6119 -84.2089 297° West 372 428 36,000 -295 Level Indianapolis Center
Sat 07:52:10 PM 40.6589 -84.3322 297° West 374 430 35,400 -1,672 Descending Indianapolis Center
Sat 07:53:11 PM 40.7056 -84.4558 297° West 374 430 32,600 -2,557 Descending Indianapolis Center
Sat 07:54:12 PM 40.7478 -84.5719 296° West 352 405 30,200 -1,279 Descending Indianapolis Center
Sat 07:55:13 PM 40.7897 -84.6797 297° West 331 381 30,000 -98 Descending Indianapolis Center
Sat 07:56:14 PM 40.8303 -84.7886 296° West 329 379 30,000  Level Indianapolis Center
Sat 07:57:14 PM 40.8861 -84.8867 307° West 332 382 30,000  Level Indianapolis Center
Sat 07:58:15 PM 40.9425 -84.9853 307° West 333 383 30,000  Level Indianapolis Center
Sat 07:59:16 PM 40.9978 -85.0839 307° West 332 382 30,000  Level Indianapolis Center
Sat 08:00:17 PM 41.0542 -85.1803 308° West 331 381 30,000 -639 Level Indianapolis Center
Sat 08:01:18 PM 41.1111 -85.2819 307° West 339 390 28,700 -1,033 Descending Indianapolis Center
Sat 08:02:19 PM 41.1739 -85.3944 307° West 373 429 27,900 -868 Descending Indianapolis Center
Sat 08:02:34 PM 41.1936 -85.4308 306° West 371 427 27,600 -1,026 Descending Chicago Center
Sat 08:03:35 PM 41.2569 -85.5447 307° West 380 437 26,600 -1,033 Descending Chicago Center
Sat 08:04:36 PM 41.3203 -85.6575 307° West 380 437 25,500 -1,033 Descending Chicago Center
Sat 08:05:37 PM 41.3831 -85.7711 306° West 379 436 24,500 -1,024 Descending Chicago Center
Sat 08:06:39 PM 41.4222 -85.8969 293° West 371 427 23,400 -2,000 Descending Chicago Center
Sat 08:07:40 PM 41.4478 -86.0233 285° West 353 406 20,400 -2,951 Descending Chicago Center
Sat 08:08:41 PM 41.4722 -86.1422 285° West 337 388 17,400 -2,951 Descending Chicago Center
Sat 08:09:42 PM 41.4944 -86.2542 285° West 320 368 14,400 -2,829 Descending Chicago Center
Sat 08:10:44 PM 41.5158 -86.3589 285° West 298 343 11,600 -2,098 Descending Chicago Center
Sat 08:11:45 PM 41.5225 -86.4886 274° West 295 339 10,100 -787 Descending Chicago Center
Sat 08:12:46 PM 41.5211 -86.5872 269° West 261 300 10,000 -49 Descending Chicago Center
Sat 08:13:47 PM 41.5206 -86.6736 270° West 235 270 10,000  Level Chicago Center
Sat 08:14:49 PM 41.5211 -86.7558 271° West 233 268 10,000  Level Chicago Center
Sat 08:15:50 PM 41.5197 -86.8422 269° West 232 267 10,000 -49 Level Chicago Center
Sat 08:16:51 PM 41.5183 -86.9283 269° West 232 267 9,900 -885 Descending Chicago Center
Sat 08:17:52 PM 41.5164 -87.0278 269° West 225 259 8,200 -1,377 Descending Chicago Center
Sat 08:18:53 PM 41.5256 -87.1067 279° West 218 251 7,100 -1,056 Descending Chicago Center
Sat 08:19:40 PM 41.5500 -87.1667 299° West 239 275 6,300 -1,009 Descending Chicago TRACON
Sat 08:20:40 PM 41.5667 -87.2500 285° West 241 277 5,300 -1,000 Descending Chicago TRACON
Sat 08:21:40 PM 41.6000 -87.3333 298° West 242 278 4,300 -500 Descending Chicago TRACON
Sat 08:22:40 PM 41.6167 -87.4167 285° West 236 272 4,300  Level Chicago TRACON
Sat 08:22:58 PM 41.6214 -87.4347 289° West 238 274 4,300 -76 Level Chicago Center
Sat 08:23:59 PM 41.6447 -87.5144 291° West 236 272 4,200 -148 Descending Chicago Center
Sat 08:25:00 PM 41.6639 -87.5808 291° West 215 247 4,000 -780 Descending Chicago Center
Sat 08:26:02 PM 41.7075 -87.6450 312° West 204 235 2,600 -1,326 Descending Chicago Center
Sat 08:26:35 PM 41.7333 -87.6667 328° Northwest 194 223 1,900 -839 Descending Chicago TRACON
Sat 08:27:35 PM 41.7500 -87.7167 294° West 126 145 1,300 -600 Descending Chicago TRACON

Login

Don't have an account? Register now (free) for customized features, flight alerts, and more!